sensor_id;sensor_type;location;lat;lon;timestamp;P1;durP1;ratioP1;P2;durP2;ratioP2
40707;SDS011;26392;42.696;23.350;2022-09-09T00:01:38;16.42;;;8.73;;
40707;SDS011;26392;42.696;23.350;2022-09-09T00:04:16;13.55;;;8.75;;
40707;SDS011;26392;42.696;23.350;2022-09-09T00:10:00;15.60;;;8.93;;
40707;SDS011;26392;42.696;23.350;2022-09-09T00:15:20;13.50;;;8.13;;
40707;SDS011;26392;42.696;23.350;2022-09-09T00:20:19;12.73;;;9.32;;
40707;SDS011;26392;42.696;23.350;2022-09-09T00:25:42;13.15;;;8.63;;
40707;SDS011;26392;42.696;23.350;2022-09-09T00:28:29;14.63;;;8.88;;
40707;SDS011;26392;42.696;23.350;2022-09-09T00:30:59;14.32;;;9.45;;
40707;SDS011;26392;42.696;23.350;2022-09-09T00:33:35;12.48;;;8.88;;
40707;SDS011;26392;42.696;23.350;2022-09-09T00:36:01;16.48;;;10.10;;
40707;SDS011;26392;42.696;23.350;2022-09-09T00:43:36;15.75;;;10.02;;
40707;SDS011;26392;42.696;23.350;2022-09-09T00:51:41;15.65;;;9.00;;
40707;SDS011;26392;42.696;23.350;2022-09-09T00:57:13;16.25;;;9.70;;
40707;SDS011;26392;42.696;23.350;2022-09-09T01:08:00;11.60;;;8.50;;
40707;SDS011;26392;42.696;23.350;2022-09-09T01:12:59;16.20;;;9.82;;
40707;SDS011;26392;42.696;23.350;2022-09-09T01:15:28;14.48;;;9.57;;
40707;SDS011;26392;42.696;23.350;2022-09-09T01:18:01;12.50;;;9.20;;
40707;SDS011;26392;42.696;23.350;2022-09-09T01:23:47;16.35;;;10.10;;
40707;SDS011;26392;42.696;23.350;2022-09-09T01:26:34;13.27;;;9.05;;
40707;SDS011;26392;42.696;23.350;2022-09-09T01:29:08;13.00;;;9.15;;
40707;SDS011;26392;42.696;23.350;2022-09-09T01:31:36;14.00;;;10.05;;
40707;SDS011;26392;42.696;23.350;2022-09-09T01:34:14;21.95;;;10.68;;
40707;SDS011;26392;42.696;23.350;2022-09-09T01:36:44;16.58;;;10.63;;
40707;SDS011;26392;42.696;23.350;2022-09-09T01:39:16;14.80;;;10.52;;
40707;SDS011;26392;42.696;23.350;2022-09-09T01:41:42;20.92;;;11.30;;
40707;SDS011;26392;42.696;23.350;2022-09-09T01:44:08;15.88;;;9.98;;
40707;SDS011;26392;42.696;23.350;2022-09-09T01:46:34;14.52;;;10.18;;
40707;SDS011;26392;42.696;23.350;2022-09-09T01:49:00;17.38;;;10.40;;
40707;SDS011;26392;42.696;23.350;2022-09-09T01:51:29;12.90;;;9.63;;
40707;SDS011;26392;42.696;23.350;2022-09-09T01:53:55;15.07;;;10.20;;
40707;SDS011;26392;42.696;23.350;2022-09-09T02:02:04;14.55;;;10.55;;
40707;SDS011;26392;42.696;23.350;2022-09-09T02:04:43;17.25;;;10.85;;
40707;SDS011;26392;42.696;23.350;2022-09-09T02:10:24;15.77;;;11.20;;
40707;SDS011;26392;42.696;23.350;2022-09-09T02:13:07;17.45;;;10.60;;
40707;SDS011;26392;42.696;23.350;2022-09-09T02:16:19;18.50;;;10.48;;
40707;SDS011;26392;42.696;23.350;2022-09-09T02:21:07;16.17;;;11.63;;
40707;SDS011;26392;42.696;23.350;2022-09-09T02:23:37;15.23;;;11.25;;
40707;SDS011;26392;42.696;23.350;2022-09-09T02:26:05;17.85;;;11.57;;
40707;SDS011;26392;42.696;23.350;2022-09-09T02:28:32;15.02;;;11.10;;
40707;SDS011;26392;42.696;23.350;2022-09-09T02:31:01;17.48;;;11.35;;
40707;SDS011;26392;42.696;23.350;2022-09-09T02:33:28;20.52;;;12.18;;
40707;SDS011;26392;42.696;23.350;2022-09-09T02:35:59;18.83;;;11.50;;
40707;SDS011;26392;42.696;23.350;2022-09-09T02:38:29;16.20;;;10.98;;
40707;SDS011;26392;42.696;23.350;2022-09-09T02:41:00;13.43;;;11.00;;
40707;SDS011;26392;42.696;23.350;2022-09-09T02:43:30;17.15;;;12.45;;
40707;SDS011;26392;42.696;23.350;2022-09-09T02:46:03;17.08;;;11.75;;
40707;SDS011;26392;42.696;23.350;2022-09-09T02:56:51;24.20;;;12.52;;
40707;SDS011;26392;42.696;23.350;2022-09-09T02:59:21;15.70;;;11.65;;
40707;SDS011;26392;42.696;23.350;2022-09-09T03:01:47;17.95;;;12.75;;
40707;SDS011;26392;42.696;23.350;2022-09-09T03:04:13;26.83;;;12.35;;
40707;SDS011;26392;42.696;23.350;2022-09-09T03:06:38;16.80;;;12.30;;
40707;SDS011;26392;42.696;23.350;2022-09-09T03:09:04;16.00;;;12.57;;
40707;SDS011;26392;42.696;23.350;2022-09-09T03:11:29;18.30;;;12.57;;
40707;SDS011;26392;42.696;23.350;2022-09-09T03:13:55;19.48;;;12.88;;
40707;SDS011;26392;42.696;23.350;2022-09-09T03:16:24;15.55;;;12.35;;
40707;SDS011;26392;42.696;23.350;2022-09-09T03:18:49;18.33;;;12.45;;
40707;SDS011;26392;42.696;23.350;2022-09-09T03:21:15;19.80;;;12.68;;
40707;SDS011;26392;42.696;23.350;2022-09-09T03:23:41;17.60;;;11.95;;
40707;SDS011;26392;42.696;23.350;2022-09-09T03:26:07;17.17;;;12.35;;
40707;SDS011;26392;42.696;23.350;2022-09-09T03:28:32;20.05;;;12.95;;
40707;SDS011;26392;42.696;23.350;2022-09-09T03:31:01;22.73;;;12.93;;
40707;SDS011;26392;42.696;23.350;2022-09-09T03:33:28;18.60;;;12.73;;
40707;SDS011;26392;42.696;23.350;2022-09-09T03:35:54;24.95;;;14.20;;
40707;SDS011;26392;42.696;23.350;2022-09-09T03:38:22;16.80;;;12.38;;
40707;SDS011;26392;42.696;23.350;2022-09-09T03:40:52;23.98;;;13.25;;
40707;SDS011;26392;42.696;23.350;2022-09-09T03:43:21;22.88;;;12.98;;
40707;SDS011;26392;42.696;23.350;2022-09-09T03:45:46;18.98;;;12.85;;
40707;SDS011;26392;42.696;23.350;2022-09-09T03:48:12;19.65;;;12.80;;
40707;SDS011;26392;42.696;23.350;2022-09-09T03:50:38;18.70;;;13.45;;
40707;SDS011;26392;42.696;23.350;2022-09-09T03:53:04;21.08;;;13.48;;
40707;SDS011;26392;42.696;23.350;2022-09-09T03:55:31;18.65;;;13.70;;
40707;SDS011;26392;42.696;23.350;2022-09-09T03:57:57;21.30;;;12.88;;
40707;SDS011;26392;42.696;23.350;2022-09-09T04:00:22;22.63;;;12.65;;
40707;SDS011;26392;42.696;23.350;2022-09-09T04:02:48;25.50;;;13.38;;
40707;SDS011;26392;42.696;23.350;2022-09-09T04:05:14;19.23;;;12.98;;
40707;SDS011;26392;42.696;23.350;2022-09-09T04:07:40;19.77;;;13.35;;
40707;SDS011;26392;42.696;23.350;2022-09-09T04:10:06;19.85;;;13.65;;
40707;SDS011;26392;42.696;23.350;2022-09-09T04:12:33;20.55;;;13.30;;
40707;SDS011;26392;42.696;23.350;2022-09-09T04:14:59;23.73;;;13.73;;
40707;SDS011;26392;42.696;23.350;2022-09-09T04:17:27;23.75;;;13.73;;
40707;SDS011;26392;42.696;23.350;2022-09-09T04:19:52;21.13;;;13.68;;
40707;SDS011;26392;42.696;23.350;2022-09-09T04:22:17;27.40;;;16.33;;
40707;SDS011;26392;42.696;23.350;2022-09-09T04:24:43;18.65;;;13.73;;
40707;SDS011;26392;42.696;23.350;2022-09-09T04:27:08;24.23;;;14.57;;
40707;SDS011;26392;42.696;23.350;2022-09-09T04:29:34;30.35;;;15.77;;
40707;SDS011;26392;42.696;23.350;2022-09-09T04:31:59;20.27;;;14.27;;
40707;SDS011;26392;42.696;23.350;2022-09-09T04:34:25;21.90;;;13.88;;
40707;SDS011;26392;42.696;23.350;2022-09-09T04:36:51;18.02;;;13.02;;
40707;SDS011;26392;42.696;23.350;2022-09-09T04:39:20;20.83;;;13.07;;
40707;SDS011;26392;42.696;23.350;2022-09-09T04:41:45;20.38;;;13.48;;
40707;SDS011;26392;42.696;23.350;2022-09-09T04:44:11;18.08;;;12.88;;
40707;SDS011;26392;42.696;23.350;2022-09-09T04:46:37;21.05;;;12.23;;
40707;SDS011;26392;42.696;23.350;2022-09-09T04:49:02;17.35;;;11.43;;
40707;SDS011;26392;42.696;23.350;2022-09-09T04:51:28;17.20;;;11.20;;
40707;SDS011;26392;42.696;23.350;2022-09-09T04:53:56;18.77;;;10.65;;
40707;SDS011;26392;42.696;23.350;2022-09-09T04:56:21;13.90;;;10.15;;
40707;SDS011;26392;42.696;23.350;2022-09-09T04:58:47;16.40;;;10.73;;
40707;SDS011;26392;42.696;23.350;2022-09-09T05:01:13;16.77;;;12.00;;
40707;SDS011;26392;42.696;23.350;2022-09-09T05:03:44;18.33;;;10.73;;
40707;SDS011;26392;42.696;23.350;2022-09-09T05:06:14;18.05;;;10.63;;
40707;SDS011;26392;42.696;23.350;2022-09-09T05:08:41;15.18;;;10.50;;
40707;SDS011;26392;42.696;23.350;2022-09-09T05:13:49;14.93;;;10.77;;
40707;SDS011;26392;42.696;23.350;2022-09-09T05:16:15;16.35;;;11.00;;
40707;SDS011;26392;42.696;23.350;2022-09-09T05:18:42;13.27;;;10.60;;
40707;SDS011;26392;42.696;23.350;2022-09-09T05:21:08;27.25;;;11.57;;
40707;SDS011;26392;42.696;23.350;2022-09-09T05:23:35;16.50;;;11.02;;
40707;SDS011;26392;42.696;23.350;2022-09-09T05:26:00;17.65;;;10.98;;
40707;SDS011;26392;42.696;23.350;2022-09-09T05:28:27;19.65;;;11.57;;
40707;SDS011;26392;42.696;23.350;2022-09-09T05:30:59;16.13;;;11.25;;
40707;SDS011;26392;42.696;23.350;2022-09-09T05:33:30;29.08;;;12.13;;
40707;SDS011;26392;42.696;23.350;2022-09-09T05:36:00;23.33;;;11.05;;
40707;SDS011;26392;42.696;23.350;2022-09-09T05:38:33;17.90;;;11.73;;
40707;SDS011;26392;42.696;23.350;2022-09-09T05:41:00;17.73;;;11.55;;
40707;SDS011;26392;42.696;23.350;2022-09-09T05:43:27;18.00;;;11.55;;
40707;SDS011;26392;42.696;23.350;2022-09-09T05:48:29;20.20;;;10.85;;
40707;SDS011;26392;42.696;23.350;2022-09-09T05:50:57;23.80;;;11.27;;
40707;SDS011;26392;42.696;23.350;2022-09-09T05:53:23;16.92;;;11.23;;
40707;SDS011;26392;42.696;23.350;2022-09-09T05:55:48;21.30;;;11.50;;
40707;SDS011;26392;42.696;23.350;2022-09-09T05:58:15;20.88;;;10.65;;
40707;SDS011;26392;42.696;23.350;2022-09-09T06:00:42;14.55;;;9.23;;
40707;SDS011;26392;42.696;23.350;2022-09-09T06:03:11;17.58;;;7.60;;
40707;SDS011;26392;42.696;23.350;2022-09-09T06:05:37;12.18;;;7.88;;
40707;SDS011;26392;42.696;23.350;2022-09-09T06:08:03;11.95;;;7.32;;
40707;SDS011;26392;42.696;23.350;2022-09-09T06:10:28;11.73;;;6.03;;
40707;SDS011;26392;42.696;23.350;2022-09-09T06:12:54;10.35;;;6.32;;
40707;SDS011;26392;42.696;23.350;2022-09-09T06:15:19;11.57;;;6.57;;
40707;SDS011;26392;42.696;23.350;2022-09-09T06:17:45;12.35;;;6.78;;
40707;SDS011;26392;42.696;23.350;2022-09-09T06:20:10;11.20;;;6.78;;
40707;SDS011;26392;42.696;23.350;2022-09-09T06:22:39;9.80;;;6.55;;
40707;SDS011;26392;42.696;23.350;2022-09-09T06:25:06;10.25;;;7.00;;
40707;SDS011;26392;42.696;23.350;2022-09-09T06:27:32;11.82;;;6.78;;
40707;SDS011;26392;42.696;23.350;2022-09-09T06:29:58;12.60;;;6.47;;
40707;SDS011;26392;42.696;23.350;2022-09-09T06:32:23;13.52;;;5.63;;
40707;SDS011;26392;42.696;23.350;2022-09-09T06:34:49;10.45;;;6.07;;
40707;SDS011;26392;42.696;23.350;2022-09-09T06:37:14;5.93;;;4.80;;
40707;SDS011;26392;42.696;23.350;2022-09-09T06:39:40;8.02;;;5.68;;
40707;SDS011;26392;42.696;23.350;2022-09-09T06:42:05;8.30;;;5.05;;
40707;SDS011;26392;42.696;23.350;2022-09-09T06:44:33;9.85;;;5.65;;
40707;SDS011;26392;42.696;23.350;2022-09-09T06:46:59;11.48;;;6.00;;
40707;SDS011;26392;42.696;23.350;2022-09-09T06:49:24;8.68;;;5.35;;
40707;SDS011;26392;42.696;23.350;2022-09-09T06:51:50;11.15;;;5.10;;
40707;SDS011;26392;42.696;23.350;2022-09-09T06:54:17;7.88;;;5.38;;
40707;SDS011;26392;42.696;23.350;2022-09-09T06:56:43;8.32;;;5.40;;
40707;SDS011;26392;42.696;23.350;2022-09-09T06:59:10;8.75;;;4.82;;
40707;SDS011;26392;42.696;23.350;2022-09-09T07:01:38;10.50;;;5.20;;
40707;SDS011;26392;42.696;23.350;2022-09-09T07:04:06;9.73;;;5.40;;
40707;SDS011;26392;42.696;23.350;2022-09-09T07:06:34;7.25;;;5.10;;
40707;SDS011;26392;42.696;23.350;2022-09-09T07:09:02;6.55;;;5.30;;
40707;SDS011;26392;42.696;23.350;2022-09-09T07:11:31;12.35;;;5.90;;
40707;SDS011;26392;42.696;23.350;2022-09-09T07:14:02;10.07;;;5.57;;
40707;SDS011;26392;42.696;23.350;2022-09-09T07:16:27;9.07;;;5.38;;
40707;SDS011;26392;42.696;23.350;2022-09-09T07:18:54;14.23;;;6.82;;
40707;SDS011;26392;42.696;23.350;2022-09-09T07:21:24;9.05;;;5.65;;
40707;SDS011;26392;42.696;23.350;2022-09-09T07:23:49;8.65;;;5.80;;
40707;SDS011;26392;42.696;23.350;2022-09-09T07:26:16;7.53;;;5.35;;
40707;SDS011;26392;42.696;23.350;2022-09-09T07:28:46;11.60;;;5.95;;
40707;SDS011;26392;42.696;23.350;2022-09-09T07:31:13;5.97;;;5.22;;
40707;SDS011;26392;42.696;23.350;2022-09-09T07:33:42;10.82;;;5.43;;
40707;SDS011;26392;42.696;23.350;2022-09-09T07:36:30;14.85;;;5.15;;
40707;SDS011;26392;42.696;23.350;2022-09-09T07:39:02;5.90;;;4.80;;
40707;SDS011;26392;42.696;23.350;2022-09-09T07:41:31;5.72;;;4.43;;
40707;SDS011;26392;42.696;23.350;2022-09-09T07:44:10;15.27;;;5.22;;
40707;SDS011;26392;42.696;23.350;2022-09-09T07:46:38;7.00;;;5.70;;
40707;SDS011;26392;42.696;23.350;2022-09-09T07:49:07;7.47;;;4.47;;
40707;SDS011;26392;42.696;23.350;2022-09-09T07:51:37;10.23;;;4.68;;
40707;SDS011;26392;42.696;23.350;2022-09-09T07:54:06;7.95;;;5.40;;
40707;SDS011;26392;42.696;23.350;2022-09-09T07:56:34;6.50;;;4.97;;
40707;SDS011;26392;42.696;23.350;2022-09-09T07:59:01;8.98;;;4.97;;
40707;SDS011;26392;42.696;23.350;2022-09-09T08:01:28;9.50;;;5.80;;
40707;SDS011;26392;42.696;23.350;2022-09-09T08:04:02;9.30;;;5.35;;
40707;SDS011;26392;42.696;23.350;2022-09-09T08:06:32;9.32;;;4.50;;
40707;SDS011;26392;42.696;23.350;2022-09-09T08:08:59;7.85;;;4.70;;
40707;SDS011;26392;42.696;23.350;2022-09-09T08:11:26;9.88;;;5.18;;
40707;SDS011;26392;42.696;23.350;2022-09-09T08:13:54;7.22;;;4.75;;
40707;SDS011;26392;42.696;23.350;2022-09-09T08:16:21;5.43;;;4.82;;
40707;SDS011;26392;42.696;23.350;2022-09-09T08:18:52;14.27;;;10.13;;
40707;SDS011;26392;42.696;23.350;2022-09-09T08:21:20;13.00;;;5.47;;
40707;SDS011;26392;42.696;23.350;2022-09-09T08:23:53;6.65;;;5.03;;
40707;SDS011;26392;42.696;23.350;2022-09-09T08:26:20;6.95;;;5.15;;
40707;SDS011;26392;42.696;23.350;2022-09-09T08:28:47;7.90;;;5.07;;
40707;SDS011;26392;42.696;23.350;2022-09-09T08:31:14;7.93;;;4.80;;
40707;SDS011;26392;42.696;23.350;2022-09-09T08:33:42;9.52;;;5.15;;
40707;SDS011;26392;42.696;23.350;2022-09-09T08:36:10;11.68;;;5.07;;
40707;SDS011;26392;42.696;23.350;2022-09-09T08:38:40;9.25;;;5.45;;
40707;SDS011;26392;42.696;23.350;2022-09-09T08:46:42;8.30;;;4.45;;
40707;SDS011;26392;42.696;23.350;2022-09-09T08:52:28;6.95;;;5.38;;
40707;SDS011;26392;42.696;23.350;2022-09-09T08:55:03;6.63;;;5.65;;
40707;SDS011;26392;42.696;23.350;2022-09-09T08:57:38;10.23;;;5.22;;
40707;SDS011;26392;42.696;23.350;2022-09-09T09:00:04;6.75;;;4.75;;
40707;SDS011;26392;42.696;23.350;2022-09-09T09:02:37;7.97;;;4.93;;
40707;SDS011;26392;42.696;23.350;2022-09-09T09:07:47;7.15;;;4.43;;
40707;SDS011;26392;42.696;23.350;2022-09-09T09:13:19;7.78;;;4.80;;
40707;SDS011;26392;42.696;23.350;2022-09-09T09:19:03;8.60;;;4.95;;
40707;SDS011;26392;42.696;23.350;2022-09-09T09:24:16;12.05;;;5.28;;
40707;SDS011;26392;42.696;23.350;2022-09-09T09:26:46;11.18;;;5.22;;
40707;SDS011;26392;42.696;23.350;2022-09-09T09:29:13;9.27;;;5.20;;
40707;SDS011;26392;42.696;23.350;2022-09-09T09:31:45;9.48;;;5.00;;
40707;SDS011;26392;42.696;23.350;2022-09-09T09:34:16;11.85;;;5.40;;
40707;SDS011;26392;42.696;23.350;2022-09-09T09:36:43;6.50;;;5.28;;
40707;SDS011;26392;42.696;23.350;2022-09-09T09:39:22;6.03;;;5.25;;
40707;SDS011;26392;42.696;23.350;2022-09-09T09:41:55;8.85;;;5.25;;
40707;SDS011;26392;42.696;23.350;2022-09-09T09:44:29;7.13;;;5.15;;
40707;SDS011;26392;42.696;23.350;2022-09-09T09:47:07;6.18;;;5.05;;
40707;SDS011;26392;42.696;23.350;2022-09-09T09:49:33;7.00;;;4.97;;
40707;SDS011;26392;42.696;23.350;2022-09-09T09:52:02;7.03;;;5.03;;
40707;SDS011;26392;42.696;23.350;2022-09-09T09:54:30;7.97;;;5.50;;
40707;SDS011;26392;42.696;23.350;2022-09-09T09:59:40;9.60;;;4.90;;
40707;SDS011;26392;42.696;23.350;2022-09-09T10:02:16;7.47;;;5.47;;
40707;SDS011;26392;42.696;23.350;2022-09-09T10:04:42;9.32;;;5.13;;
40707;SDS011;26392;42.696;23.350;2022-09-09T10:07:12;10.38;;;5.53;;
40707;SDS011;26392;42.696;23.350;2022-09-09T10:09:42;6.93;;;5.43;;
40707;SDS011;26392;42.696;23.350;2022-09-09T10:15:27;9.48;;;5.68;;
40707;SDS011;26392;42.696;23.350;2022-09-09T10:26:20;10.32;;;5.43;;
40707;SDS011;26392;42.696;23.350;2022-09-09T10:31:32;10.18;;;6.03;;
40707;SDS011;26392;42.696;23.350;2022-09-09T10:36:29;9.80;;;5.65;;
40707;SDS011;26392;42.696;23.350;2022-09-09T10:38:59;9.73;;;5.75;;
40707;SDS011;26392;42.696;23.350;2022-09-09T10:41:36;11.18;;;6.35;;
40707;SDS011;26392;42.696;23.350;2022-09-09T10:55:53;9.45;;;5.90;;
40707;SDS011;26392;42.696;23.350;2022-09-09T11:01:24;14.68;;;6.15;;
40707;SDS011;26392;42.696;23.350;2022-09-09T11:03:59;10.50;;;7.00;;
40707;SDS011;26392;42.696;23.350;2022-09-09T11:06:32;12.57;;;6.35;;
40707;SDS011;26392;42.696;23.350;2022-09-09T11:09:05;11.40;;;6.20;;
40707;SDS011;26392;42.696;23.350;2022-09-09T11:11:34;11.90;;;6.68;;
40707;SDS011;26392;42.696;23.350;2022-09-09T11:16:59;12.40;;;7.72;;
40707;SDS011;26392;42.696;23.350;2022-09-09T11:19:33;14.68;;;7.07;;
40707;SDS011;26392;42.696;23.350;2022-09-09T11:33:42;10.52;;;6.60;;
40707;SDS011;26392;42.696;23.350;2022-09-09T11:42:06;12.25;;;6.68;;
40707;SDS011;26392;42.696;23.350;2022-09-09T11:44:43;10.50;;;6.38;;
40707;SDS011;26392;42.696;23.350;2022-09-09T11:49:47;10.25;;;6.13;;
40707;SDS011;26392;42.696;23.350;2022-09-09T11:52:21;12.88;;;6.88;;
40707;SDS011;26392;42.696;23.350;2022-09-09T11:54:47;14.00;;;6.90;;
40707;SDS011;26392;42.696;23.350;2022-09-09T11:57:24;9.93;;;6.72;;
40707;SDS011;26392;42.696;23.350;2022-09-09T12:00:00;12.10;;;6.45;;
40707;SDS011;26392;42.696;23.350;2022-09-09T12:02:28;13.00;;;7.38;;
40707;SDS011;26392;42.696;23.350;2022-09-09T12:04:59;14.27;;;7.05;;
40707;SDS011;26392;42.696;23.350;2022-09-09T12:10:19;8.45;;;6.40;;
40707;SDS011;26392;42.696;23.350;2022-09-09T12:12:47;11.32;;;6.63;;
40707;SDS011;26392;42.696;23.350;2022-09-09T12:17:45;14.75;;;7.57;;
40707;SDS011;26392;42.696;23.350;2022-09-09T12:33:47;11.70;;;7.10;;
40707;SDS011;26392;42.696;23.350;2022-09-09T12:36:16;9.32;;;6.70;;
40707;SDS011;26392;42.696;23.350;2022-09-09T12:39:09;10.52;;;7.43;;
40707;SDS011;26392;42.696;23.350;2022-09-09T12:41:55;12.27;;;7.20;;
40707;SDS011;26392;42.696;23.350;2022-09-09T12:44:24;16.98;;;7.93;;
40707;SDS011;26392;42.696;23.350;2022-09-09T12:46:52;21.92;;;7.50;;
40707;SDS011;26392;42.696;23.350;2022-09-09T12:49:34;11.70;;;7.13;;
40707;SDS011;26392;42.696;23.350;2022-09-09T12:52:21;12.73;;;7.22;;
40707;SDS011;26392;42.696;23.350;2022-09-09T12:54:52;11.05;;;7.90;;
40707;SDS011;26392;42.696;23.350;2022-09-09T12:57:19;10.48;;;7.28;;
40707;SDS011;26392;42.696;23.350;2022-09-09T12:59:47;13.25;;;6.63;;
40707;SDS011;26392;42.696;23.350;2022-09-09T13:02:20;10.02;;;7.15;;
40707;SDS011;26392;42.696;23.350;2022-09-09T13:07:15;17.50;;;7.47;;
40707;SDS011;26392;42.696;23.350;2022-09-09T13:09:41;17.90;;;7.28;;
40707;SDS011;26392;42.696;23.350;2022-09-09T13:12:11;10.73;;;7.15;;
40707;SDS011;26392;42.696;23.350;2022-09-09T13:14:40;11.00;;;7.15;;
40707;SDS011;26392;42.696;23.350;2022-09-09T13:17:17;11.88;;;7.53;;
40707;SDS011;26392;42.696;23.350;2022-09-09T13:24:59;16.92;;;7.85;;
40707;SDS011;26392;42.696;23.350;2022-09-09T13:27:31;10.65;;;6.90;;
40707;SDS011;26392;42.696;23.350;2022-09-09T13:29:59;9.82;;;6.78;;
40707;SDS011;26392;42.696;23.350;2022-09-09T13:32:25;14.82;;;7.72;;
40707;SDS011;26392;42.696;23.350;2022-09-09T13:34:53;15.57;;;7.78;;
40707;SDS011;26392;42.696;23.350;2022-09-09T13:37:31;13.88;;;6.55;;
40707;SDS011;26392;42.696;23.350;2022-09-09T13:39:59;14.20;;;6.90;;
40707;SDS011;26392;42.696;23.350;2022-09-09T13:42:27;9.32;;;6.95;;
40707;SDS011;26392;42.696;23.350;2022-09-09T13:44:56;22.02;;;8.88;;
40707;SDS011;26392;42.696;23.350;2022-09-09T13:47:29;17.40;;;7.32;;
40707;SDS011;26392;42.696;23.350;2022-09-09T13:49:57;12.68;;;7.28;;
40707;SDS011;26392;42.696;23.350;2022-09-09T13:52:22;9.55;;;6.68;;
40707;SDS011;26392;42.696;23.350;2022-09-09T13:54:49;8.52;;;6.78;;
40707;SDS011;26392;42.696;23.350;2022-09-09T13:57:24;24.50;;;6.93;;
40707;SDS011;26392;42.696;23.350;2022-09-09T13:59:51;12.32;;;6.18;;
40707;SDS011;26392;42.696;23.350;2022-09-09T14:02:18;13.30;;;7.22;;
40707;SDS011;26392;42.696;23.350;2022-09-09T14:04:43;13.98;;;7.03;;
40707;SDS011;26392;42.696;23.350;2022-09-09T14:07:13;12.05;;;7.35;;
40707;SDS011;26392;42.696;23.350;2022-09-09T14:09:40;11.23;;;7.32;;
40707;SDS011;26392;42.696;23.350;2022-09-09T14:12:10;9.98;;;7.30;;
40707;SDS011;26392;42.696;23.350;2022-09-09T14:14:37;13.82;;;7.65;;
40707;SDS011;26392;42.696;23.350;2022-09-09T14:17:02;17.35;;;7.70;;
40707;SDS011;26392;42.696;23.350;2022-09-09T14:19:29;11.13;;;7.15;;
40707;SDS011;26392;42.696;23.350;2022-09-09T14:21:56;9.65;;;7.05;;
40707;SDS011;26392;42.696;23.350;2022-09-09T14:24:22;9.60;;;6.90;;
40707;SDS011;26392;42.696;23.350;2022-09-09T14:26:49;10.63;;;7.28;;
40707;SDS011;26392;42.696;23.350;2022-09-09T14:29:14;11.30;;;6.72;;
40707;SDS011;26392;42.696;23.350;2022-09-09T14:31:40;9.35;;;6.70;;
40707;SDS011;26392;42.696;23.350;2022-09-09T14:34:05;18.75;;;6.90;;
40707;SDS011;26392;42.696;23.350;2022-09-09T14:36:31;17.35;;;8.18;;
40707;SDS011;26392;42.696;23.350;2022-09-09T14:38:56;23.10;;;6.97;;
40707;SDS011;26392;42.696;23.350;2022-09-09T14:41:23;14.43;;;6.75;;
40707;SDS011;26392;42.696;23.350;2022-09-09T14:43:50;14.23;;;7.53;;
40707;SDS011;26392;42.696;23.350;2022-09-09T14:46:17;15.25;;;6.80;;
40707;SDS011;26392;42.696;23.350;2022-09-09T14:48:43;14.55;;;7.18;;
40707;SDS011;26392;42.696;23.350;2022-09-09T14:53:40;15.77;;;6.60;;
40707;SDS011;26392;42.696;23.350;2022-09-09T14:56:09;14.05;;;6.55;;
40707;SDS011;26392;42.696;23.350;2022-09-09T14:58:37;15.00;;;5.97;;
40707;SDS011;26392;42.696;23.350;2022-09-09T15:01:06;14.75;;;6.38;;
40707;SDS011;26392;42.696;23.350;2022-09-09T15:03:34;15.20;;;5.88;;
40707;SDS011;26392;42.696;23.350;2022-09-09T15:06:10;11.73;;;7.05;;
40707;SDS011;26392;42.696;23.350;2022-09-09T15:08:37;9.75;;;6.55;;
40707;SDS011;26392;42.696;23.350;2022-09-09T15:11:05;15.57;;;6.53;;
40707;SDS011;26392;42.696;23.350;2022-09-09T15:13:35;10.20;;;6.60;;
40707;SDS011;26392;42.696;23.350;2022-09-09T15:16:08;11.38;;;5.85;;
40707;SDS011;26392;42.696;23.350;2022-09-09T15:18:38;14.00;;;6.90;;
40707;SDS011;26392;42.696;23.350;2022-09-09T15:21:12;12.27;;;7.38;;
40707;SDS011;26392;42.696;23.350;2022-09-09T15:23:39;12.18;;;7.10;;
40707;SDS011;26392;42.696;23.350;2022-09-09T15:26:05;13.05;;;7.13;;
40707;SDS011;26392;42.696;23.350;2022-09-09T15:28:35;8.40;;;6.22;;
40707;SDS011;26392;42.696;23.350;2022-09-09T15:31:07;12.57;;;6.15;;
40707;SDS011;26392;42.696;23.350;2022-09-09T15:33:36;14.77;;;6.80;;
40707;SDS011;26392;42.696;23.350;2022-09-09T15:36:15;11.95;;;6.93;;
40707;SDS011;26392;42.696;23.350;2022-09-09T15:38:42;11.55;;;7.63;;
40707;SDS011;26392;42.696;23.350;2022-09-09T15:41:09;13.25;;;7.40;;
40707;SDS011;26392;42.696;23.350;2022-09-09T15:43:35;17.85;;;7.03;;
40707;SDS011;26392;42.696;23.350;2022-09-09T15:46:08;11.90;;;6.35;;
40707;SDS011;26392;42.696;23.350;2022-09-09T15:48:42;11.50;;;7.07;;
40707;SDS011;26392;42.696;23.350;2022-09-09T15:51:09;15.07;;;6.43;;
40707;SDS011;26392;42.696;23.350;2022-09-09T15:53:35;11.85;;;6.68;;
40707;SDS011;26392;42.696;23.350;2022-09-09T15:56:04;11.43;;;6.65;;
40707;SDS011;26392;42.696;23.350;2022-09-09T15:58:31;10.35;;;6.65;;
40707;SDS011;26392;42.696;23.350;2022-09-09T16:01:04;15.35;;;6.85;;
40707;SDS011;26392;42.696;23.350;2022-09-09T16:03:34;10.05;;;6.78;;
40707;SDS011;26392;42.696;23.350;2022-09-09T16:06:03;14.52;;;6.88;;
40707;SDS011;26392;42.696;23.350;2022-09-09T16:08:37;18.80;;;9.70;;
40707;SDS011;26392;42.696;23.350;2022-09-09T16:11:07;16.70;;;7.85;;
40707;SDS011;26392;42.696;23.350;2022-09-09T16:13:37;23.48;;;9.27;;
40707;SDS011;26392;42.696;23.350;2022-09-09T16:16:04;13.85;;;8.55;;
40707;SDS011;26392;42.696;23.350;2022-09-09T16:18:34;23.38;;;9.90;;
40707;SDS011;26392;42.696;23.350;2022-09-09T16:21:01;23.80;;;9.38;;
40707;SDS011;26392;42.696;23.350;2022-09-09T16:23:26;16.08;;;8.32;;
40707;SDS011;26392;42.696;23.350;2022-09-09T16:25:55;14.93;;;8.32;;
40707;SDS011;26392;42.696;23.350;2022-09-09T16:28:21;14.52;;;8.93;;
40707;SDS011;26392;42.696;23.350;2022-09-09T16:30:47;18.00;;;8.55;;
40707;SDS011;26392;42.696;23.350;2022-09-09T16:33:13;24.77;;;9.35;;
40707;SDS011;26392;42.696;23.350;2022-09-09T16:35:39;25.88;;;12.35;;
40707;SDS011;26392;42.696;23.350;2022-09-09T16:38:05;25.45;;;11.60;;
40707;SDS011;26392;42.696;23.350;2022-09-09T16:40:33;22.73;;;9.13;;
40707;SDS011;26392;42.696;23.350;2022-09-09T16:43:04;18.10;;;10.55;;
40707;SDS011;26392;42.696;23.350;2022-09-09T16:45:30;26.05;;;10.35;;
40707;SDS011;26392;42.696;23.350;2022-09-09T16:47:57;21.20;;;9.57;;
40707;SDS011;26392;42.696;23.350;2022-09-09T16:50:23;16.15;;;10.13;;
40707;SDS011;26392;42.696;23.350;2022-09-09T16:52:48;17.00;;;9.35;;
40707;SDS011;26392;42.696;23.350;2022-09-09T16:55:13;22.55;;;10.85;;
40707;SDS011;26392;42.696;23.350;2022-09-09T16:57:39;20.50;;;10.20;;
40707;SDS011;26392;42.696;23.350;2022-09-09T17:00:06;17.05;;;9.75;;
40707;SDS011;26392;42.696;23.350;2022-09-09T17:02:32;20.85;;;10.15;;
40707;SDS011;26392;42.696;23.350;2022-09-09T17:04:58;27.88;;;10.38;;
40707;SDS011;26392;42.696;23.350;2022-09-09T17:07:24;18.67;;;10.07;;
40707;SDS011;26392;42.696;23.350;2022-09-09T17:09:50;28.05;;;13.88;;
40707;SDS011;26392;42.696;23.350;2022-09-09T17:12:15;27.15;;;11.23;;
40707;SDS011;26392;42.696;23.350;2022-09-09T17:14:41;30.52;;;11.02;;
40707;SDS011;26392;42.696;23.350;2022-09-09T17:17:07;23.23;;;10.98;;
40707;SDS011;26392;42.696;23.350;2022-09-09T17:19:32;22.55;;;10.10;;
40707;SDS011;26392;42.696;23.350;2022-09-09T17:21:58;24.48;;;11.40;;